createdAt,value
2023-04-03T00:01:27.452Z,102219.48
2023-04-03T00:03:55.805Z,102221.21
2023-04-03T00:06:24.664Z,102220.88
2023-04-03T00:08:53.635Z,102227.44
2023-04-03T00:11:21.807Z,102224.05
2023-04-03T00:13:50.719Z,102221.86
2023-04-03T00:16:19.316Z,102223.54
2023-04-03T00:18:47.563Z,102226.99
2023-04-03T00:21:16.688Z,102227.04
2023-04-03T00:23:44.864Z,102224.59
2023-04-03T00:26:13.338Z,102224.95
2023-04-03T00:28:41.820Z,102229.90
2023-04-03T00:31:10.238Z,102227.14
2023-04-03T00:33:38.589Z,102228.85
2023-04-03T00:36:09.188Z,102228.65
2023-04-03T00:38:37.844Z,102228.27
2023-04-03T00:41:06.165Z,102229.95
2023-04-03T00:43:34.406Z,102229.98
2023-04-03T00:46:02.749Z,102230.87
2023-04-03T00:48:35.671Z,102226.72
2023-04-03T00:51:07.273Z,102233.01
2023-04-03T00:53:40.161Z,102230.88
2023-04-03T00:56:11.788Z,102233.47
2023-04-03T00:58:49.948Z,102232.30
2023-04-03T01:01:24.034Z,102223.31
2023-04-03T01:03:52.775Z,102230.52
2023-04-03T01:06:41.329Z,102229.71
2023-04-03T01:09:10.072Z,102236.84
2023-04-03T01:11:38.211Z,102237.46
2023-04-03T01:14:07.599Z,102235.53
2023-04-03T01:16:35.986Z,102238.00
2023-04-03T01:19:06.631Z,102240.73
2023-04-03T01:21:55.762Z,102241.14
2023-04-03T01:24:37.277Z,102233.63
2023-04-03T01:27:10.544Z,102237.24
2023-04-03T01:29:39.475Z,102237.81
2023-04-03T01:32:07.761Z,102239.17
2023-04-03T01:34:35.960Z,102240.05
2023-04-03T01:37:04.795Z,102241.91
2023-04-03T01:39:32.884Z,102243.62
2023-04-03T01:42:01.563Z,102238.63
2023-04-03T01:44:32.965Z,102239.26
2023-04-03T01:47:01.452Z,102237.15
2023-04-03T01:49:30.218Z,102237.98
2023-04-03T01:51:58.872Z,102242.99
2023-04-03T01:54:27.159Z,102246.98
2023-04-03T01:56:55.276Z,102243.05
2023-04-03T01:59:24.084Z,102247.71
2023-04-03T02:01:52.817Z,102252.48
2023-04-03T02:04:21.224Z,102251.44
2023-04-03T02:06:49.337Z,102249.05
2023-04-03T02:09:17.465Z,102250.77
2023-04-03T02:11:46.044Z,102250.08
2023-04-03T02:14:15.362Z,102252.80
2023-04-03T02:16:43.740Z,102253.15
2023-04-03T02:19:11.841Z,102253.85
2023-04-03T02:21:39.974Z,102250.60
2023-04-03T02:24:08.224Z,102254.73
2023-04-03T02:26:36.487Z,102258.48
2023-04-03T02:29:05.024Z,102257.98
2023-04-03T02:31:33.280Z,102260.69
2023-04-03T02:34:02.885Z,102259.34
2023-04-03T02:36:32.927Z,102262.98
2023-04-03T02:39:02.398Z,102265.75
2023-04-03T02:41:36.165Z,102263.99
2023-04-03T02:44:07.451Z,102263.64
2023-04-03T02:46:35.752Z,102266.91
2023-04-03T02:49:05.467Z,102264.14
2023-04-03T02:51:33.807Z,102269.61
2023-04-03T02:54:04.304Z,102269.72
2023-04-03T02:56:35.035Z,102273.80
2023-04-03T02:59:03.312Z,102273.13
2023-04-03T03:01:33.634Z,102281.73
2023-04-03T03:04:01.861Z,102276.89
2023-04-03T03:06:30.067Z,102273.56
2023-04-03T03:08:58.183Z,102275.79
2023-04-03T03:11:26.657Z,102281.36
2023-04-03T03:13:54.801Z,102285.52
2023-04-03T03:32:25.604Z,102292.27
2023-04-03T03:34:54.211Z,102291.15
2023-04-03T03:37:22.247Z,102293.09
2023-04-03T03:39:50.326Z,102295.92
2023-04-03T03:42:18.796Z,102293.89
2023-04-03T03:44:46.929Z,102297.95
2023-04-03T03:47:15.069Z,102304.13
2023-04-03T03:49:43.316Z,102300.34
2023-04-03T03:52:11.694Z,102300.30
2023-04-03T03:54:40.127Z,102300.12
2023-04-03T03:57:09.057Z,102301.71
2023-04-03T03:59:37.922Z,102310.66
2023-04-03T04:02:06.842Z,102308.05
2023-04-03T04:04:35.305Z,102315.42
2023-04-03T04:07:04.124Z,102312.83
2023-04-03T04:09:33.010Z,102317.54
2023-04-03T04:12:01.628Z,102317.84
2023-04-03T04:14:30.505Z,102316.27
2023-04-03T04:16:58.981Z,102318.17
2023-04-03T04:19:28.284Z,102319.41
2023-04-03T04:21:56.396Z,102323.55
2023-04-03T04:24:25.089Z,102319.99
2023-04-03T04:26:55.576Z,102327.36
2023-04-03T04:29:24.316Z,102328.17
2023-04-03T04:31:52.867Z,102328.51
2023-04-03T04:34:23.063Z,102328.33
2023-04-03T04:36:51.846Z,102332.46
2023-04-03T04:39:20.409Z,102329.18
2023-04-03T04:41:48.976Z,102328.27
2023-04-03T04:44:17.341Z,102332.71
2023-04-03T04:46:46.523Z,102336.30
2023-04-03T04:49:14.796Z,102334.61
2023-04-03T04:51:51.477Z,102338.70
2023-04-03T04:54:22.990Z,102339.71
2023-04-03T04:56:51.675Z,102342.64
2023-04-03T04:59:21.859Z,102344.56
2023-04-03T05:01:50.816Z,102346.11
2023-04-03T05:04:19.195Z,102350.54
2023-04-03T05:06:49.958Z,102349.27
2023-04-03T05:09:21.450Z,102352.70
2023-04-03T05:11:50.548Z,102356.21
2023-04-03T05:14:20.737Z,102360.67
2023-04-03T05:16:50.888Z,102363.31
2023-04-03T05:19:23.743Z,102358.84
2023-04-03T05:21:52.708Z,102360.94
2023-04-03T05:24:21.014Z,102366.91
2023-04-03T05:26:49.680Z,102362.50
2023-04-03T05:29:18.256Z,102360.83
2023-04-03T05:31:50.195Z,102369.21
2023-04-03T05:34:18.892Z,102366.50
2023-04-03T05:36:48.754Z,102367.39
2023-04-03T05:39:17.828Z,102369.80
2023-04-03T05:41:46.586Z,102370.33
2023-04-03T05:44:14.880Z,102370.83
2023-04-03T05:46:43.616Z,102368.27
2023-04-03T05:49:12.279Z,102372.79
2023-04-03T05:51:41.494Z,102378.37
2023-04-03T05:54:35.341Z,102384.55
2023-04-03T05:57:13.029Z,102389.04
2023-04-03T05:59:44.678Z,102388.48
2023-04-03T06:02:19.667Z,102387.80
2023-04-03T06:04:49.135Z,102389.52
2023-04-03T06:07:22.138Z,102393.98
2023-04-03T06:09:52.614Z,102387.98
2023-04-03T06:12:21.205Z,102390.10
2023-04-03T06:14:49.957Z,102393.48
2023-04-03T06:17:19.277Z,102393.34
2023-04-03T06:19:47.957Z,102396.42
2023-04-03T06:22:17.146Z,102404.05
2023-04-03T06:24:47.968Z,102402.38
2023-04-03T06:27:16.697Z,102404.86
2023-04-03T06:29:46.395Z,102413.72
2023-04-03T06:32:14.817Z,102411.16
2023-04-03T06:34:43.409Z,102421.73
2023-04-03T06:37:19.767Z,102424.38
2023-04-03T06:39:48.224Z,102427.55
2023-04-03T06:42:17.874Z,102428.88
2023-04-03T06:44:57.181Z,102424.54
2023-04-03T06:47:28.035Z,102430.11
2023-04-03T06:49:57.635Z,102435.11
2023-04-03T06:52:27.270Z,102439.17
2023-04-03T06:54:58.726Z,102440.00
2023-04-03T06:57:27.597Z,102438.02
2023-04-03T06:59:55.734Z,102439.84
2023-04-03T07:02:24.063Z,102443.50
2023-04-03T07:04:56.247Z,102437.52
2023-04-03T07:07:24.440Z,102444.14
2023-04-03T07:09:53.380Z,102442.94
2023-04-03T07:12:21.761Z,102448.27
2023-04-03T07:14:49.969Z,102441.25
2023-04-03T07:17:18.617Z,102440.06
2023-04-03T07:19:46.988Z,102447.50
2023-04-03T07:22:15.215Z,102450.45
2023-04-03T07:24:43.638Z,102451.08
2023-04-03T07:27:13.837Z,102450.79
2023-04-03T07:29:48.365Z,102451.25
2023-04-03T07:32:24.901Z,102453.80
2023-04-03T07:34:53.127Z,102452.51
2023-04-03T07:37:21.747Z,102452.05
2023-04-03T07:39:50.103Z,102453.80
2023-04-03T07:42:18.386Z,102461.73
2023-04-03T07:44:46.790Z,102455.33
2023-04-03T07:47:17.257Z,102460.45
2023-04-03T07:49:45.915Z,102458.98
2023-04-03T07:52:15.821Z,102455.52
2023-04-03T07:54:44.140Z,102458.59
2023-04-03T07:57:12.910Z,102461.23
2023-04-03T07:59:42.259Z,102464.02
2023-04-03T08:02:11.413Z,102468.21
2023-04-03T08:04:39.847Z,102463.33
2023-04-03T08:07:08.100Z,102464.27
2023-04-03T08:09:36.288Z,102465.38
2023-04-03T08:12:04.579Z,102463.25
2023-04-03T08:14:35.513Z,102464.00
2023-04-03T08:17:06.194Z,102466.55
2023-04-03T08:19:34.511Z,102464.08
2023-04-03T08:22:04.095Z,102465.71
2023-04-03T08:24:33.591Z,102467.49
2023-04-03T08:27:01.966Z,102466.36
2023-04-03T08:29:30.975Z,102469.04
2023-04-03T08:32:00.325Z,102469.45
2023-04-03T08:34:28.372Z,102471.07
2023-04-03T08:36:56.805Z,102467.03
2023-04-03T08:39:25.095Z,102470.38
2023-04-03T08:41:53.907Z,102464.73
2023-04-03T08:44:32.822Z,102468.52
2023-04-03T08:47:15.252Z,102469.15
2023-04-03T08:49:48.802Z,102470.27
2023-04-03T08:52:21.429Z,102469.67
2023-04-03T08:54:53.984Z,102461.48
2023-04-03T08:57:36.101Z,102461.40
2023-04-03T09:00:15.271Z,102461.45
2023-04-03T09:02:56.274Z,102464.39
2023-04-03T09:05:47.364Z,102461.86
2023-04-03T09:08:38.693Z,102463.92
2023-04-03T09:11:23.078Z,102462.17
2023-04-03T09:14:27.079Z,102467.50
2023-04-03T09:17:01.644Z,102466.49
2023-04-03T09:19:32.570Z,102465.13
2023-04-03T09:22:03.691Z,102461.91
2023-04-03T09:24:32.903Z,102461.25
2023-04-03T09:27:06.779Z,102463.52
2023-04-03T09:29:39.781Z,102462.21
2023-04-03T09:32:23.201Z,102460.55
2023-04-03T09:34:54.508Z,102461.33
2023-04-03T09:37:44.276Z,102461.17
2023-04-03T09:40:46.718Z,102457.74
2023-04-03T09:43:27.510Z,102455.24
2023-04-03T09:45:57.672Z,102450.67
2023-04-03T09:48:29.221Z,102454.93
2023-04-03T09:51:00.556Z,102452.44
2023-04-03T09:53:39.352Z,102454.70
2023-04-03T09:56:22.780Z,102455.52
2023-04-03T09:59:05.010Z,102455.12
2023-04-03T10:01:42.648Z,102456.44
2023-04-03T10:04:16.775Z,102443.41
2023-04-03T10:06:53.733Z,102453.45
2023-04-03T10:09:22.023Z,102446.55
2023-04-03T10:12:07.679Z,102455.42
2023-04-03T10:14:38.487Z,102458.50
2023-04-03T10:17:10.305Z,102453.63
2023-04-03T10:19:47.488Z,102461.93
2023-04-03T10:22:28.954Z,102463.12
2023-04-03T10:25:14.764Z,102467.60
2023-04-03T10:27:50.006Z,102464.69
2023-04-03T10:30:30.972Z,102460.05
2023-04-03T10:33:25.782Z,102462.11
2023-04-03T10:36:16.488Z,102461.02
2023-04-03T10:38:49.632Z,102460.52
2023-04-03T10:41:39.617Z,102457.45
2023-04-03T10:44:25.943Z,102454.61
2023-04-03T10:47:04.149Z,102451.07
2023-04-03T10:49:59.872Z,102455.10
2023-04-03T10:52:48.952Z,102453.34
2023-04-03T10:55:35.376Z,102453.44
2023-04-03T10:58:04.681Z,102453.48
2023-04-03T11:00:45.042Z,102447.13
2023-04-03T11:03:28.216Z,102449.77
2023-04-03T11:05:58.700Z,102453.95
2023-04-03T11:08:59.418Z,102454.46
2023-04-03T11:11:34.041Z,102456.85
2023-04-03T11:14:10.827Z,102453.61
2023-04-03T11:16:53.051Z,102456.88
2023-04-03T11:19:34.931Z,102452.66
2023-04-03T11:22:31.288Z,102454.25
2023-04-03T11:25:11.798Z,102455.02
2023-04-03T11:27:46.979Z,102456.69
2023-04-03T11:30:41.382Z,102456.98
2023-04-03T11:33:29.233Z,102449.29
2023-04-03T11:36:09.634Z,102451.19
2023-04-03T11:38:48.548Z,102449.08
2023-04-03T11:41:18.169Z,102452.48
2023-04-03T11:44:38.723Z,102449.98
2023-04-03T11:47:09.936Z,102450.53
2023-04-03T11:50:03.552Z,102452.13
2023-04-03T11:52:44.180Z,102447.22
2023-04-03T11:55:12.887Z,102443.14
2023-04-03T11:58:05.672Z,102442.34
2023-04-03T12:00:52.566Z,102441.21
2023-04-03T12:03:23.974Z,102435.77
2023-04-03T12:05:55.093Z,102438.20
2023-04-03T12:08:34.105Z,102442.91
2023-04-03T12:11:14.555Z,102441.03
2023-04-03T12:13:58.232Z,102440.59
2023-04-03T12:16:38.553Z,102431.02
2023-04-03T12:19:17.105Z,102428.55
2023-04-03T12:21:45.900Z,102430.28
2023-04-03T12:24:17.447Z,102434.90
2023-04-03T12:26:52.389Z,102438.33
2023-04-03T12:29:33.616Z,102432.33
2023-04-03T12:32:04.403Z,102429.27
2023-04-03T12:35:03.964Z,102430.46
2023-04-03T12:37:32.030Z,102426.85
2023-04-03T12:40:00.677Z,102425.40
2023-04-03T12:43:11.378Z,102425.86
2023-04-03T12:46:09.140Z,102425.23
2023-04-03T12:48:48.669Z,102421.64
2023-04-03T12:51:22.381Z,102416.55
2023-04-03T12:53:56.020Z,102414.19
2023-04-03T12:56:29.944Z,102412.27
2023-04-03T12:59:18.265Z,102408.55
2023-04-03T13:02:01.886Z,102409.77
2023-04-03T13:04:32.485Z,102409.40
2023-04-03T13:07:01.357Z,102409.30
2023-04-03T13:09:32.141Z,102410.08
2023-04-03T13:12:14.349Z,102411.43
2023-04-03T13:14:53.125Z,102409.96
2023-04-03T13:17:22.704Z,102402.48
2023-04-03T13:19:53.461Z,102397.58
2023-04-03T13:22:24.420Z,102400.52
2023-04-03T13:24:55.401Z,102405.19
2023-04-03T13:27:24.300Z,102400.55
2023-04-03T13:30:00.156Z,102393.30
2023-04-03T13:32:31.073Z,102394.27
2023-04-03T13:35:11.643Z,102397.16
2023-04-03T13:37:56.956Z,102400.13
2023-04-03T13:40:27.987Z,102394.70
2023-04-03T13:43:06.091Z,102391.20
2023-04-03T13:45:35.917Z,102387.23
2023-04-03T13:48:22.122Z,102387.22
2023-04-03T13:50:58.494Z,102385.04
2023-04-03T13:53:28.672Z,102384.41
2023-04-03T13:56:05.981Z,102382.80
2023-04-03T13:58:36.930Z,102389.15
2023-04-03T14:01:36.223Z,102381.84
2023-04-03T14:04:18.292Z,102379.98
2023-04-03T14:06:48.100Z,102386.27
2023-04-03T14:09:18.591Z,102387.07
2023-04-03T14:11:50.555Z,102384.15
2023-04-03T14:14:25.104Z,102378.52
2023-04-03T14:16:56.921Z,102373.11
2023-04-03T14:19:31.563Z,102362.51
2023-04-03T14:22:01.494Z,102360.75
2023-04-03T14:24:30.204Z,102368.21
2023-04-03T14:26:58.272Z,102358.36
2023-04-03T14:29:26.753Z,102367.98
2023-04-03T14:32:07.392Z,102368.89
2023-04-03T14:34:44.214Z,102371.48
2023-04-03T14:37:15.871Z,102367.60
2023-04-03T14:39:45.095Z,102366.80
2023-04-03T14:42:17.093Z,102367.57
2023-04-03T14:44:45.612Z,102364.91
2023-04-03T14:47:30.549Z,102360.86
2023-04-03T14:50:02.249Z,102368.25
2023-04-03T14:52:36.884Z,102371.91
2023-04-03T14:55:07.429Z,102367.89
2023-04-03T14:57:36.284Z,102367.23
2023-04-03T15:00:06.010Z,102362.42
2023-04-03T15:02:36.593Z,102364.02
2023-04-03T15:05:08.047Z,102358.68
2023-04-03T15:07:46.040Z,102355.19
2023-04-03T15:10:29.328Z,102362.30
2023-04-03T15:12:58.414Z,102357.59
2023-04-03T15:15:30.052Z,102359.14
2023-04-03T15:17:59.249Z,102355.89
2023-04-03T15:20:31.654Z,102353.15
2023-04-03T15:23:02.255Z,102356.96
2023-04-03T15:25:31.254Z,102351.44
2023-04-03T15:28:00.684Z,102359.88
2023-04-03T15:30:28.787Z,102356.40
2023-04-03T15:32:57.175Z,102351.08
2023-04-03T15:35:25.584Z,102354.67
2023-04-03T15:37:53.751Z,102352.58
2023-04-03T15:40:22.127Z,102345.61
2023-04-03T15:42:51.319Z,102350.85
2023-04-03T15:45:22.263Z,102355.16
2023-04-03T15:47:50.772Z,102352.66
2023-04-03T15:50:19.110Z,102351.52
2023-04-03T15:52:47.368Z,102352.38
2023-04-03T15:55:15.703Z,102354.77
2023-04-03T15:57:43.818Z,102348.66
2023-04-03T16:00:12.773Z,102350.72
2023-04-03T16:02:41.828Z,102354.36
2023-04-03T16:05:11.510Z,102357.73
2023-04-03T16:07:41.134Z,102359.31
2023-04-03T16:10:11.586Z,102355.48
2023-04-03T16:12:39.747Z,102352.14
2023-04-03T16:15:08.700Z,102356.00
2023-04-03T16:17:37.992Z,102351.96
2023-04-03T16:20:08.081Z,102350.58
2023-04-03T16:22:36.961Z,102351.89
2023-04-03T16:25:07.573Z,102349.92
2023-04-03T16:27:35.953Z,102356.80
2023-04-03T16:30:06.175Z,102354.27
2023-04-03T16:32:35.670Z,102354.94
2023-04-03T16:35:04.564Z,102353.52
2023-04-03T16:37:33.218Z,102351.84
2023-04-03T16:40:01.757Z,102352.14
2023-04-03T16:42:30.150Z,102352.67
2023-04-03T16:44:59.832Z,102352.42
2023-04-03T16:47:28.497Z,102354.79
2023-04-03T16:49:56.972Z,102357.08
2023-04-03T16:52:25.491Z,102360.66
2023-04-03T16:54:56.651Z,102354.20
2023-04-03T16:57:25.993Z,102358.89
2023-04-03T16:59:54.864Z,102355.11
2023-04-03T17:02:27.819Z,102358.95
2023-04-03T17:04:56.725Z,102351.27
2023-04-03T17:07:26.164Z,102354.27
2023-04-03T17:09:55.308Z,102353.27
2023-04-03T17:12:24.103Z,102346.17
2023-04-03T17:14:52.637Z,102354.67
2023-04-03T17:17:25.233Z,102351.64
2023-04-03T17:19:54.966Z,102346.19
2023-04-03T17:22:23.633Z,102351.02
2023-04-03T17:24:52.362Z,102359.83
2023-04-03T17:27:21.445Z,102353.58
2023-04-03T17:29:50.059Z,102352.52
2023-04-03T17:32:19.457Z,102343.00
2023-04-03T17:34:48.169Z,102353.48
2023-04-03T17:37:16.503Z,102352.77
2023-04-03T17:39:44.935Z,102349.02
2023-04-03T17:42:13.459Z,102346.98
2023-04-03T17:44:41.770Z,102339.22
2023-04-03T17:47:10.370Z,102344.33
2023-04-03T17:49:38.987Z,102343.02
2023-04-03T17:52:07.055Z,102341.11
2023-04-03T17:54:35.980Z,102342.94
2023-04-03T17:57:04.754Z,102347.06
2023-04-03T17:59:33.151Z,102346.91
2023-04-03T18:02:02.110Z,102345.39
2023-04-03T18:04:32.007Z,102339.60
2023-04-03T18:07:02.608Z,102346.20
2023-04-03T18:09:33.851Z,102339.79
2023-04-03T18:12:05.678Z,102340.65
2023-04-03T18:14:37.414Z,102344.30
2023-04-03T18:17:06.611Z,102332.57
2023-04-03T18:19:41.299Z,102331.74
2023-04-03T18:22:14.915Z,102326.88
2023-04-03T18:24:44.192Z,102338.67
2023-04-03T18:27:19.850Z,102337.19
2023-04-03T18:29:52.862Z,102337.84
2023-04-03T18:32:22.742Z,102332.67
2023-04-03T18:34:51.371Z,102337.29
2023-04-03T18:37:21.706Z,102347.95
2023-04-03T18:39:49.962Z,102335.41
2023-04-03T18:47:53.120Z,102338.50
2023-04-03T18:50:21.852Z,102332.75
2023-04-03T18:52:50.985Z,102335.21
2023-04-03T18:55:20.871Z,102329.38
2023-04-03T18:57:50.055Z,102328.38
2023-04-03T19:00:18.997Z,102330.36
2023-04-03T19:02:49.119Z,102327.48
2023-04-03T19:05:19.810Z,102322.98
2023-04-03T19:07:48.901Z,102319.79
2023-04-03T19:10:18.224Z,102328.20
2023-04-03T19:12:48.535Z,102324.62
2023-04-03T19:15:20.115Z,102318.17
2023-04-03T19:17:48.482Z,102325.46
2023-04-03T19:20:17.143Z,102316.46
2023-04-03T19:22:45.759Z,102310.85
2023-04-03T19:25:14.706Z,102311.59
2023-04-03T19:27:42.890Z,102314.65
2023-04-03T19:30:12.610Z,102315.16
2023-04-03T19:32:40.981Z,102310.52
2023-04-03T19:35:09.499Z,102309.34
2023-04-03T19:37:38.065Z,102315.21
2023-04-03T19:40:07.479Z,102309.92
2023-04-03T19:42:40.389Z,102310.05
2023-04-03T19:45:10.699Z,102310.02
2023-04-03T19:47:39.182Z,102304.45
2023-04-03T19:50:08.225Z,102312.05
2023-04-03T19:52:36.908Z,102308.86
2023-04-03T19:55:06.234Z,102310.41
2023-04-03T19:57:34.830Z,102308.96
2023-04-03T20:00:04.326Z,102300.50
2023-04-03T20:02:39.993Z,102300.23
2023-04-03T20:05:08.831Z,102300.93
2023-04-03T20:07:37.542Z,102309.54
2023-04-03T20:10:06.320Z,102299.00
2023-04-03T20:12:36.451Z,102297.98
2023-04-03T20:15:07.490Z,102293.86
2023-04-03T20:17:36.138Z,102291.11
2023-04-03T20:20:05.760Z,102289.73
2023-04-03T20:22:36.303Z,102284.48
2023-04-03T20:25:11.262Z,102288.36
2023-04-03T20:27:40.740Z,102289.09
2023-04-03T20:30:14.368Z,102287.52
2023-04-03T20:32:43.456Z,102281.79
2023-04-03T20:35:11.829Z,102289.33
2023-04-03T20:37:40.639Z,102287.54
2023-04-03T20:40:09.816Z,102286.05
2023-04-03T20:42:38.818Z,102277.80
2023-04-03T20:45:08.571Z,102284.08
2023-04-03T20:47:37.438Z,102273.19
2023-04-03T20:50:06.585Z,102272.54
2023-04-03T20:52:36.317Z,102274.09
2023-04-03T20:55:05.640Z,102271.89
2023-04-03T20:57:34.252Z,102271.23
2023-04-03T21:00:05.159Z,102266.77
2023-04-03T21:02:34.634Z,102267.56
2023-04-03T21:05:03.350Z,102274.77
2023-04-03T21:08:10.933Z,102264.75
2023-04-03T21:11:16.958Z,102270.30
2023-04-03T21:14:27.918Z,102262.73
2023-04-03T21:16:56.427Z,102265.56
2023-04-03T21:19:25.439Z,102266.02
2023-04-03T21:21:55.260Z,102273.30
2023-04-03T21:24:23.667Z,102270.73
2023-04-03T21:26:52.078Z,102261.00
2023-04-03T21:29:20.507Z,102263.41
2023-04-03T21:31:51.648Z,102270.46
2023-04-03T21:34:21.870Z,102260.02
2023-04-03T21:36:50.112Z,102252.53
2023-04-03T21:39:19.241Z,102254.27
2023-04-03T21:41:49.899Z,102255.14
2023-04-03T21:44:19.262Z,102254.35
2023-04-03T21:46:48.192Z,102258.23
2023-04-03T21:49:17.497Z,102253.66
2023-04-03T21:51:45.544Z,102254.70
2023-04-03T21:54:14.818Z,102250.65
2023-04-03T21:56:42.978Z,102250.29
2023-04-03T21:59:11.513Z,102245.81
2023-04-03T22:01:40.064Z,102237.06
2023-04-03T22:04:08.330Z,102233.75
2023-04-03T22:06:38.178Z,102241.09
2023-04-03T22:09:06.740Z,102237.86
2023-04-03T22:11:34.764Z,102234.77
2023-04-03T22:14:03.062Z,102239.40
2023-04-03T22:16:31.300Z,102245.98
2023-04-03T22:18:59.678Z,102247.46
2023-04-03T22:21:28.085Z,102248.81
2023-04-03T22:23:56.440Z,102247.13
2023-04-03T22:26:24.559Z,102248.52
2023-04-03T22:28:52.704Z,102253.19
2023-04-03T22:31:21.130Z,102250.50
2023-04-03T22:33:49.363Z,102251.73
2023-04-03T22:36:17.615Z,102252.14
2023-04-03T22:38:47.349Z,102253.51
2023-04-03T22:41:15.662Z,102250.63
2023-04-03T22:43:43.785Z,102247.94
2023-04-03T22:46:12.112Z,102248.45
2023-04-03T22:48:45.338Z,102252.34
2023-04-03T22:51:13.491Z,102245.98
2023-04-03T22:53:41.540Z,102248.37
2023-04-03T22:56:11.152Z,102250.98
2023-04-03T22:58:39.870Z,102249.83
2023-04-03T23:01:10.432Z,102244.75
2023-04-03T23:03:40.144Z,102246.49
2023-04-03T23:06:10.014Z,102248.25
2023-04-03T23:08:38.850Z,102250.02
2023-04-03T23:11:07.791Z,102248.10
2023-04-03T23:13:36.080Z,102242.01
2023-04-03T23:16:04.961Z,102244.39
2023-04-03T23:18:33.527Z,102241.84
2023-04-03T23:21:04.378Z,102241.55
2023-04-03T23:23:32.889Z,102236.52
2023-04-03T23:26:02.344Z,102237.37
2023-04-03T23:28:30.770Z,102243.63
2023-04-03T23:31:05.813Z,102234.91
2023-04-03T23:33:34.090Z,102233.19
2023-04-03T23:36:08.934Z,102230.81
2023-04-03T23:38:37.657Z,102228.77
2023-04-03T23:41:06.215Z,102226.75
2023-04-03T23:43:35.213Z,102221.35
2023-04-03T23:46:03.724Z,102218.09
2023-04-03T23:48:32.312Z,102216.48
2023-04-03T23:51:00.644Z,102222.95
2023-04-03T23:53:29.010Z,102225.73
2023-04-03T23:55:57.160Z,102222.20
2023-04-03T23:58:25.308Z,102216.86
